• Join FlightAware (Why Join?)
  • Login
  • US Flag 
10:50PM EDT


 

Airport Tracker/Info


-or-


 

Live Flight TrackerFlight Track Log ✈ UAL1071 ✈ 05-Sep-2013 ✈ KEWR - TJBQ / BQN

Flight Track Log - Related Links

Times and Time Zones

All times are in EDT time to prevent confusion due to time zone crossing. See the UAL1071 flight status page for this flight to view local times or setup timezone preferences in your user account.

Time Position Orientation Groundspeed Altitude Reporting Facility
EDT Latitude Longitude Course Direction KTS MPH feet Rate Location/Type
09:19PM 40.7333 -74.1333 123° Southeast 197 227 2,100  Level New York TRACON
09:20PM 40.7667 -74.2000 303° West 258 297 4,400 2,700 Climbing New York TRACON
09:21PM 40.3381 -74.1690 159° South  Level FlightAware Approximate
09:21PM 40.7000 -74.2500 210° Southwest 289 333 7,600  Level New York TRACON
09:22PM 40.2128 -74.1500 180° South  Level FlightAware Approximate
09:22PM 40.6333 -74.2667 191° South 289 333 10,800  Level New York TRACON
09:23PM 40.0848 -74.1500 180° South  Level FlightAware Approximate
09:23PM 40.5500 -74.2500 171° South 304 350 13,200  Level New York TRACON
09:24PM 40.0369 -74.0070 123° Southeast  Level FlightAware Approximate
09:24PM 40.4333 -74.2333 174° South 372 428 14,400  Level New York TRACON
09:24PM 40.3694 -74.2197 171° South 412 474 15,800 1,500 Climbing New York Center
09:25PM 40.2514 -74.1947 171° South 412 474 17,100 540 Climbing New York Center
09:26PM 40.1664 -74.1092 142° Southeast 390 449 17,000 300 Descending New York Center
09:27PM 40.1267 -73.9661 110° East 383 441 17,700 1,260 Climbing New York Center
09:28PM 40.0850 -73.8122 109° East 412 474 19,500 1,800 Climbing New York Center
09:29PM 40.0472 -73.6586 108° East 432 497 21,300 1,800 Climbing New York Center
09:30PM 40.0050 -73.5025 109° East 452 520 23,100 1,500 Climbing New York Center
09:31PM 39.9353 -73.3561 122° Southeast 464 534 24,400 1,320 Climbing New York Center
09:32PM 39.8242 -73.2925 156° South 468 539 25,800 1,380 Climbing New York Center
09:33PM 39.7008 -73.2072 152° Southeast 479 551 27,200 1,380 Climbing New York Center
09:34PM 39.5775 -73.1247 153° Southeast 489 563 28,600 1,020 Climbing New York Center
09:35PM 39.4522 -73.0344 151° Southeast 501 577 29,300 900 Climbing New York Center
09:36PM 39.3267 -72.9553 154° Southeast 506 582 30,500 1,380 Climbing New York Center
09:37PM 39.2031 -72.8711 152° Southeast 506 582 32,100 1,320 Climbing New York Center
09:38PM 39.0792 -72.7925 154° Southeast 501 577 33,200 900 Climbing New York Center
09:39PM 38.9536 -72.7114 153° Southeast 501 577 34,000 840 Climbing New York Center
09:40PM 38.8278 -72.6281 153° Southeast 506 582 34,900 420 Climbing New York Center
09:41PM 38.7017 -72.5478 154° Southeast 506 582 34,900  Level New York Center
09:42PM 38.5778 -72.4675 153° Southeast 506 582 34,900  Level New York Center
09:43PM 38.4558 -72.3850 152° Southeast 501 577 34,900  Level New York Center
09:44PM 38.3297 -72.3081 154° Southeast 506 582 34,900  Level New York Center
09:45PM 38.2036 -72.2314 154° Southeast 500 575 34,900  Level New York Center
09:46PM 38.0836 -72.1525 153° Southeast 500 575 34,900  Level New York Center
09:47PM 37.9633 -72.0789 154° Southeast 495 570 34,900  Level New York Center
09:48PM 37.8433 -71.9953 151° Southeast 484 557 34,900  Level New York Center
09:49PM 37.7253 -71.9250 155° Southeast 478 550 35,000  Climbing New York Center
09:50PM 37.6072 -71.8367 149° Southeast 473 544 34,900 -60 Descending New York Center
09:51PM 37.4847 -71.7614 154° Southeast 462 532 34,900  Level New York Center
09:52PM 37.3644 -71.7022 159° South 470 541 34,900  Level New York Center
09:53PM 37.2350 -71.6903 176° South 450 518 35,000 60 Climbing New York Center
09:54PM 37.4000 -71.7000 176° South 486 559 35,000 -60 Level New York Oceanic (ODAPS)
09:55PM 36.9786 -71.6661 176° South 464 534 34,900  Descending New York Center
09:56PM 36.8494 -71.6489 174° South 474 545 35,000  Climbing New York Center
09:57PM 36.7139 -71.6369 176° South 474 545 34,900  Descending New York Center
09:59PM 36.5906 -71.6230 175° South  Level FlightAware Approximate
10:06PM 35.7687 -71.5316 175° South  Level FlightAware Approximate
10:07PM 35.6513 -71.5186 175° South  Level FlightAware Approximate
10:07PM 35.6333 -71.5333 168° South 447 514 35,000  Level New York Oceanic (ODAPS)
10:08PM 35.5356 -71.4911 168° South  Level FlightAware Approximate
10:09PM 35.4203 -71.4611 168° South  Level FlightAware Approximate
10:10PM 35.3050 -71.4311 168° South  Level FlightAware Approximate
10:11PM 35.1897 -71.4012 168° South  Level FlightAware Approximate
10:12PM 35.0743 -71.3714 168° South  Level FlightAware Approximate
10:13PM 34.7823 -71.3165 168° South 447 514 35,000  Level FlightAware Transoceanic
10:14PM 34.6607 -71.2859 168° South 447 514 35,000  Level FlightAware Transoceanic
10:15PM 34.5391 -71.2554 168° South 447 514 35,000  Level FlightAware Transoceanic
10:16PM 34.4174 -71.2249 168° South 447 514 35,000  Level FlightAware Transoceanic
10:17PM 34.2958 -71.1946 168° South 447 514 35,000  Level FlightAware Transoceanic
10:18PM 34.1742 -71.1644 168° South 447 514 35,000  Level FlightAware Transoceanic
10:19PM 34.0525 -71.1342 168° South 447 514 35,000  Level FlightAware Transoceanic
10:20PM 33.9309 -71.1041 168° South 447 514 35,000  Level FlightAware Transoceanic
10:21PM 33.8092 -71.0741 168° South 447 514 35,000  Level FlightAware Transoceanic
10:22PM 33.6876 -71.0442 168° South 447 514 35,000  Level FlightAware Transoceanic
10:23PM 33.5659 -71.0144 168° South 447 514 35,000  Level FlightAware Transoceanic
10:24PM 33.4442 -70.9846 168° South 447 514 35,000  Level FlightAware Transoceanic
10:25PM 33.3225 -70.9550 169° South 447 514 35,000  Level FlightAware Transoceanic
10:26PM 33.2008 -70.9254 169° South 447 514 35,000  Level FlightAware Transoceanic
10:27PM 33.0791 -70.8959 169° South 447 514 35,000  Level FlightAware Transoceanic
10:28PM 32.9574 -70.8665 169° South 447 514 35,000  Level FlightAware Transoceanic
10:29PM 32.8357 -70.8372 169° South 447 514 35,000  Level FlightAware Transoceanic
10:30PM 32.7140 -70.8079 169° South 447 514 35,000  Level FlightAware Transoceanic
10:31PM 32.5922 -70.7787 169° South 447 514 35,000  Level FlightAware Transoceanic
10:32PM 32.4705 -70.7496 169° South 447 514 35,000  Level FlightAware Transoceanic
10:33PM 32.3488 -70.7206 169° South 447 514 35,000  Level FlightAware Transoceanic
10:34PM 32.2270 -70.6917 169° South 447 514 35,000  Level FlightAware Transoceanic
10:35PM 32.1053 -70.6628 169° South 447 514 35,000  Level FlightAware Transoceanic
10:36PM 31.9835 -70.6341 169° South 447 514 35,000  Level FlightAware Transoceanic
10:37PM 31.8617 -70.6054 169° South 447 514 35,000  Level FlightAware Transoceanic
10:38PM 31.7400 -70.5767 169° South 447 514 35,000  Level FlightAware Transoceanic
10:39PM 31.6182 -70.5482 169° South 447 514 35,000  Level FlightAware Transoceanic
10:40PM 31.4964 -70.5197 169° South 447 514 35,000  Level FlightAware Transoceanic
10:41PM 31.3746 -70.4913 169° South 447 514 35,000  Level FlightAware Transoceanic
10:42PM 31.2528 -70.4630 169° South 447 514 35,000  Level FlightAware Transoceanic
10:43PM 31.1310 -70.4347 169° South 447 514 35,000  Level FlightAware Transoceanic
10:44PM 31.0092 -70.4065 169° South 447 514 35,000  Level FlightAware Transoceanic
10:45PM 30.8873 -70.3784 169° South 447 514 35,000  Level FlightAware Transoceanic
10:46PM 30.7655 -70.3504 169° South 447 514 35,000  Level FlightAware Transoceanic
10:47PM 30.6437 -70.3224 169° South 447 514 35,000  Level FlightAware Transoceanic
10:48PM 30.5218 -70.2945 169° South 447 514 35,000  Level FlightAware Transoceanic
10:49PM 30.4000 -70.2667 169° South 447 514 35,000  Level FlightAware Transoceanic
10:50PM 30.2774 -70.2388 169° South 447 514 35,000  Level FlightAware Transoceanic
10:51PM 30.1548 -70.2110 169° South 447 514 35,000  Level FlightAware Transoceanic
10:52PM 30.0321 -70.1833 169° South 447 514 35,000  Level FlightAware Transoceanic
10:53PM 29.9095 -70.1556 169° South 447 514 35,000  Level FlightAware Transoceanic
10:54PM 29.7869 -70.1280 169° South 447 514 35,000  Level FlightAware Transoceanic
10:55PM 29.6642 -70.1005 169° South 447 514 35,000  Level FlightAware Transoceanic
10:55PM 30.4000 -70.2667 169° South 446 513 35,000  Level New York Oceanic (ODAPS)
10:56PM 29.5416 -70.0730 169° South 447 514 35,000  Level FlightAware Transoceanic
10:57PM 29.4189 -70.0456 169° South 447 514 35,000  Level FlightAware Transoceanic
10:58PM 29.2963 -70.0183 169° South 447 514 35,000  Level FlightAware Transoceanic
10:59PM 29.1736 -69.9911 169° South 447 514 35,000  Level FlightAware Transoceanic
11:00PM 29.0509 -69.9639 169° South 447 514 35,000  Level FlightAware Transoceanic
11:01PM 28.9283 -69.9367 169° South 447 514 35,000  Level FlightAware Transoceanic
11:02PM 29.0509 -69.9639 169° South 446 513 35,000  Level FlightAware Transoceanic
11:03PM 28.9283 -69.9367 169° South 446 513 35,000  Level FlightAware Transoceanic
11:04PM 28.8056 -69.9097 169° South 446 513 35,000  Level FlightAware Transoceanic
11:05PM 28.6829 -69.8827 169° South 446 513 35,000  Level FlightAware Transoceanic
11:06PM 28.5602 -69.8557 169° South 446 513 35,000  Level FlightAware Transoceanic
11:07PM 28.4375 -69.8289 169° South 446 513 35,000  Level FlightAware Transoceanic
11:08PM 28.3148 -69.8020 169° South 446 513 35,000  Level FlightAware Transoceanic
11:09PM 28.1921 -69.7753 169° South 446 513 35,000  Level FlightAware Transoceanic
11:10PM 28.0694 -69.7486 169° South 446 513 35,000  Level FlightAware Transoceanic
11:11PM 27.9467 -69.7220 169° South 446 513 35,000  Level FlightAware Transoceanic
11:12PM 27.8239 -69.6954 169° South 446 513 35,000  Level FlightAware Transoceanic
11:13PM 27.7012 -69.6689 169° South 446 513 35,000  Level FlightAware Transoceanic
11:14PM 27.5785 -69.6424 169° South 446 513 35,000  Level FlightAware Transoceanic
11:15PM 27.4557 -69.6161 169° South 446 513 35,000  Level FlightAware Transoceanic
11:16PM 27.3330 -69.5897 169° South 446 513 35,000  Level FlightAware Transoceanic
11:17PM 27.2103 -69.5634 169° South 446 513 35,000  Level FlightAware Transoceanic
11:18PM 27.0875 -69.5372 169° South 446 513 35,000  Level FlightAware Transoceanic
11:19PM 26.9648 -69.5111 169° South 446 513 35,000  Level FlightAware Transoceanic
11:20PM 26.8420 -69.4850 169° South 446 513 35,000  Level FlightAware Transoceanic
11:21PM 26.7192 -69.4589 169° South 446 513 35,000  Level FlightAware Transoceanic
11:22PM 26.5965 -69.4329 169° South 446 513 35,000  Level FlightAware Transoceanic
11:23PM 26.4737 -69.4070 169° South 446 513 35,000  Level FlightAware Transoceanic
11:24PM 26.3509 -69.3811 169° South 446 513 35,000  Level FlightAware Transoceanic
11:25PM 26.2281 -69.3553 169° South 446 513 35,000  Level FlightAware Transoceanic
11:26PM 26.1053 -69.3295 169° South 446 513 35,000 1,440 Level FlightAware Transoceanic
11:26PM 26.7167 -69.4500 170° South 449 517 37,000  Climbing New York Oceanic (ODAPS)
11:27PM 25.9825 -69.3038 169° South 446 513 35,000 -1,260 Descending FlightAware Transoceanic
11:28PM 25.8597 -69.2782 169° South 446 513 35,000  Level FlightAware Transoceanic
11:29PM 25.7369 -69.2525 169° South 446 513 35,000  Level FlightAware Transoceanic
11:30PM 25.6141 -69.2270 169° South 446 513 35,000  Level FlightAware Transoceanic
11:31PM 25.4913 -69.2015 169° South 446 513 35,000 960 Level FlightAware Transoceanic
11:32PM 25.3679 -69.1741 170° South 449 517 37,000 960 Climbing FlightAware Transoceanic
11:33PM 25.2453 -69.1494 170° South 449 517 37,000  Level FlightAware Transoceanic
11:33PM 25.1253 -69.1469 167° South 438 504 37,000  Level Miami Center
11:34PM 25.1227 -69.1247 170° South 449 517 37,000  Level FlightAware Transoceanic
11:34PM 25.0003 -69.1111 165° South 453 521 37,000  Level Miami Center
11:35PM 25.0000 -69.1000 167° South 449 517 37,000  Level FlightAware Transoceanic
11:35PM 24.8825 -69.0889 170° South 446 513 37,000  Level Miami Center
11:36PM 24.8830 -69.0709 167° South 449 517 37,000  Level FlightAware Transoceanic
11:36PM 24.7653 -69.0439 161° South 446 513 37,000  Level Miami Center
11:37PM 24.7659 -69.0418 167° South 449 517 37,000  Level FlightAware Transoceanic
11:37PM 24.6444 -69.0058 164° South 446 513 37,000  Level Miami Center
11:38PM 24.6489 -69.0128 167° South 449 517 37,000  Level FlightAware Transoceanic
11:38PM 24.5233 -68.9633 162° South 446 513 37,000  Level Miami Center
11:39PM 24.4003 -68.9233 164° South 452 520 37,000  Level Miami Center
11:40PM 24.2836 -68.8900 165° South 452 520 37,000  Level Miami Center
11:41PM 24.1603 -68.8456 162° South 452 520 37,000  Level Miami Center
11:42PM 24.0394 -68.8078 164° South 452 520 37,000  Level Miami Center
11:43PM 23.9336 -68.7761 165° South 447 514 37,000  Level Miami Center
11:44PM 23.8083 -68.7367 164° South 447 514 37,000  Level Miami Center
11:45PM 23.6875 -68.6992 164° South 447 514 37,000  Level Miami Center
11:46PM 23.5667 -68.6617 164° South 454 522 37,000  Level Miami Center
11:48PM 23.3925 -68.6028 163° South 454 522 37,000  Level Miami Center
11:49PM 23.2800 -68.5694 165° South 449 517 37,000  Level Miami Center
11:50PM 23.1506 -68.5261 163° South 449 517 37,000  Level Miami Center
11:51PM 23.0361 -68.4906 164° South 455 524 37,000  Level Miami Center
11:52PM 22.9153 -68.4536 164° South 446 513 37,000  Level Miami Center
11:53PM 22.7922 -68.4142 164° South 446 513 37,000  Level Miami Center
11:54PM 22.6775 -68.3769 163° South 446 513 37,000  Level Miami Center
11:55PM 22.5483 -68.3381 164° South 464 534 37,000  Level Miami Center
11:56PM 22.4336 -68.3008 163° South 459 528 37,000  Level Miami Center
11:57PM 22.3086 -68.2619 164° South 459 528 37,000  Level Miami Center
11:58PM 22.1919 -68.2250 164° South 451 519 37,000  Level Miami Center
11:59PM 22.0711 -68.1881 164° South 451 519 37,000  Level Miami Center
12:00AM 21.9481 -68.1492 164° South 451 519 37,000  Level Miami Center
12:01AM 21.8294 -68.1147 165° South 445 512 37,000  Level Miami Center
12:02AM 21.7169 -68.0775 163° South 440 506 37,000  Level Miami Center
12:03AM 21.5942 -68.0411 165° South 447 514 37,000  Level Miami Center
12:04AM 21.4733 -68.0044 164° South 457 526 37,000  Level Miami Center
12:05AM 21.3606 -67.9653 162° South 453 521 37,000  Level Miami Center
12:06AM 21.2336 -67.9292 165° South 448 516 37,000  Level Miami Center
12:07AM 21.1150 -67.8928 164° South 448 516 37,000  Level Miami Center
12:08AM 20.9836 -67.8528 164° South 448 516 37,000  Level Miami Center
12:09AM 20.8861 -67.8236 164° South 442 509 37,000  Level Miami Center
12:10AM 20.7617 -67.7944 168° South 442 509 37,000  Level Miami Center
12:11AM 20.6394 -67.7692 169° South 442 509 37,000  Level Miami Center
12:12AM 20.5175 -67.7464 170° South 442 509 37,000  Level Miami Center
12:13AM 20.3997 -67.7211 169° South 441 507 37,000  Level Miami Center
12:13AM 20.3167 -67.7000 167° South 440 506 37,000 -1,260 Level San Juan Center
12:14AM 20.2000 -67.6833 172° South 430 495 35,200 -2,700 Descending San Juan Center
12:15AM 20.1000 -67.6667 171° South 420 483 31,700 -2,880 Descending San Juan Center
12:16AM 19.9500 -67.6333 168° South 460 529 29,500 -2,400 Descending San Juan Center
12:17AM 19.8500 -67.6167 171° South 440 506 27,000 -2,220 Descending San Juan Center
12:18AM 19.7333 -67.5833 165° South 430 495 25,100 -2,040 Descending San Juan Center
12:19AM 19.6000 -67.5667 173° South 420 483 23,000 -2,100 Descending San Juan Center
12:20AM 19.4833 -67.5333 165° South 400 460 20,900 -2,280 Descending San Juan Center
12:21AM 19.3833 -67.5167 171° South 400 460 18,500 -2,220 Descending San Juan Center
12:22AM 19.2667 -67.5000 172° South 390 449 16,500 -1,920 Descending San Juan Center
12:23AM 19.1667 -67.4833 171° South 380 437 14,700 -1,920 Descending San Juan Center
12:24AM 19.0667 -67.4667 171° South 350 403 12,700 -1,920 Descending San Juan Center
12:25AM 18.9833 -67.4333 159° South 340 391 10,900 -1,380 Descending San Juan Center
12:26AM 18.8833 -67.4167 171° South 330 380 10,000 -1,080 Descending San Juan Center
12:27AM 18.8000 -67.4000 169° South 300 345 8,800 -1,260 Descending San Juan Center
12:28AM 18.7333 -67.4000 180° South 270 311 7,500 -1,200 Descending San Juan Center
12:29AM 18.6500 -67.3833 169° South 250 288 6,400 -840 Descending San Juan Center
12:30AM 18.5833 -67.3667 167° South 240 276 5,900 -780 Descending San Juan Center
12:31AM 18.5333 -67.3500 162° South 210 242 4,900 -900 Descending San Juan Center
12:32AM 18.4833 -67.3333 162° South 170 196 4,100 -780 Descending San Juan Center
12:33AM 18.4500 -67.3167 155° Southeast 160 184 3,400 -840 Descending San Juan Center
12:34AM 18.4500 -67.2667 90° East 190 219 2,500 -900 Descending San Juan Center
12:35AM 18.4667 -67.2167 71° East 190 219 1,700 -900 Descending San Juan Center
12:36AM 18.4667 -67.1667 90° East 160 184 800 -900 Descending San Juan Center